Time;durP1;ratioP1;P1;durP2;ratioP2;P2;SDS_P1;SDS_P2;PMS_P1;PMS_P2;Temp;Humidity;BMP_temperature;BMP_pressure;BME280_temperature;BME280_humidity;BME280_pressure;Samples;Min_cycle;Max_cycle;Signal;HPM_P1;HPM_P2
2022/11/01 00:01:59;;;;;;;29.92;16.98;;;11.20;78.70;;;;;;5074421;28;20036;-17
2022/11/01 00:04:25;;;;;;;27.27;16.00;;;11.10;79.00;;;;;;5072976;28;20059;-17
2022/11/01 00:06:51;;;;;;;21.38;13.80;;;11.00;79.10;;;;;;5073658;28;20052;-17
2022/11/01 00:09:17;;;;;;;19.92;13.38;;;11.00;78.70;;;;;;5074341;28;20036;-15
2022/11/01 00:11:43;;;;;;;20.80;13.30;;;10.90;78.80;;;;;;5074038;28;20063;-17
2022/11/01 00:14:17;;;;;;;24.52;14.20;;;10.90;78.60;;;;;;5072691;28;20467;-16
2022/11/01 00:16:44;;;;;;;26.08;16.08;;;11.00;78.90;;;;;;5072697;28;20021;-16
2022/11/01 00:19:11;;;;;;;23.27;12.68;;;10.90;79.20;;;;;;5073665;28;20087;-16
2022/11/01 00:21:37;;;;;;;28.33;15.73;;;10.90;78.90;;;;;;5073992;28;20028;-15
2022/11/01 00:24:04;;;;;;;21.60;14.10;;;10.90;78.90;;;;;;5074000;28;20024;-17
2022/11/01 00:26:30;;;;;;;28.42;15.95;;;10.90;79.00;;;;;;5073658;28;20032;-15
2022/11/01 00:28:55;;;;;;;31.05;17.77;;;10.90;79.00;;;;;;5073718;28;20024;-15
2022/11/01 00:31:22;;;;;;;24.35;15.50;;;10.90;78.90;;;;;;5073418;28;20052;-17
2022/11/01 00:33:48;;;;;;;26.30;14.00;;;10.90;79.10;;;;;;5073807;28;20032;-17
2022/11/01 00:36:14;;;;;;;23.15;13.18;;;10.90;79.20;;;;;;5073787;28;20024;-16
2022/11/01 00:38:40;;;;;;;20.38;12.43;;;10.90;79.20;;;;;;5072242;28;20021;-15
2022/11/01 00:41:07;;;;;;;23.58;14.82;;;10.90;79.00;;;;;;5073346;28;20083;-16
2022/11/01 00:43:35;;;;;;;32.88;18.08;;;10.90;78.80;;;;;;5073446;28;20516;-16
2022/11/01 00:46:02;;;;;;;32.10;20.00;;;10.90;79.40;;;;;;5073424;28;20029;-17
2022/11/01 00:48:28;;;;;;;37.45;20.88;;;10.90;79.30;;;;;;5073592;28;20159;-17
2022/11/01 00:50:54;;;;;;;39.53;19.67;;;10.90;79.40;;;;;;5073129;28;20511;-16
2022/11/01 00:53:20;;;;;;;24.48;14.85;;;10.80;79.40;;;;;;5073157;28;20028;-16
2022/11/01 00:55:46;;;;;;;31.33;19.42;;;10.80;79.40;;;;;;5073280;28;20032;-18
2022/11/01 00:58:12;;;;;;;27.77;16.08;;;10.80;79.40;;;;;;5073444;28;20019;-15
2022/11/01 01:00:39;;;;;;;23.48;14.32;;;10.80;79.40;;;;;;5073234;28;20024;-16
2022/11/01 01:03:05;;;;;;;25.02;14.32;;;10.80;79.60;;;;;;5073308;28;20028;-16
2022/11/01 01:05:33;;;;;;;27.40;15.50;;;10.80;79.50;;;;;;5073355;28;20480;-15
2022/11/01 01:07:59;;;;;;;31.83;16.48;;;10.80;79.60;;;;;;5073279;28;20036;-17
2022/11/01 01:10:26;;;;;;;32.58;18.05;;;10.80;79.60;;;;;;5073389;28;20028;-16
2022/11/01 01:12:52;;;;;;;22.23;14.15;;;10.70;79.80;;;;;;5073185;28;20412;-17
2022/11/01 01:15:18;;;;;;;19.95;11.98;;;10.70;79.90;;;;;;5073057;28;20020;-18
2022/11/01 01:17:44;;;;;;;27.70;16.45;;;10.70;79.80;;;;;;5073341;28;20025;-15
2022/11/01 01:20:10;;;;;;;21.92;13.00;;;10.60;79.90;;;;;;5073011;28;20117;-17
2022/11/01 01:22:36;;;;;;;23.38;13.85;;;10.60;79.80;;;;;;5072991;28;20020;-16
2022/11/01 01:25:03;;;;;;;22.33;13.10;;;10.60;79.70;;;;;;5072750;28;20070;-17
2022/11/01 01:27:28;;;;;;;19.92;11.98;;;10.60;79.80;;;;;;5073443;28;20029;-17
2022/11/01 01:29:54;;;;;;;19.50;12.38;;;10.60;79.80;;;;;;5072694;28;20017;-16
2022/11/01 01:32:23;;;;;;;18.95;11.50;;;10.60;79.90;;;;;;5073226;28;20039;-17
2022/11/01 01:34:49;;;;;;;19.42;11.52;;;10.60;79.70;;;;;;5072671;28;20032;-15
2022/11/01 01:37:16;;;;;;;22.55;12.35;;;10.60;79.70;;;;;;5071541;28;20017;-15
2022/11/01 01:39:42;;;;;;;19.02;11.18;;;10.60;79.60;;;;;;5072854;28;20090;-16
2022/11/01 01:42:34;;;;;;;18.33;12.10;;;10.50;79.50;;;;;;5073140;28;20032;-15
2022/11/01 01:45:18;;;;;;;16.52;10.50;;;10.60;79.30;;;;;;5072893;28;20036;-15
2022/11/01 01:47:49;;;;;;;19.52;11.63;;;10.50;79.30;;;;;;5072715;28;20039;-18
2022/11/01 01:50:25;;;;;;;13.32;9.20;;;10.50;79.70;;;;;;5072755;28;20384;-16
2022/11/01 01:53:05;;;;;;;16.55;10.68;;;10.40;79.70;;;;;;5072470;28;20036;-15
2022/11/01 01:55:40;;;;;;;17.10;9.82;;;10.40;79.60;;;;;;5072699;28;20048;-15
2022/11/01 01:58:09;;;;;;;15.07;9.73;;;10.30;79.50;;;;;;5072660;28;20056;-15
2022/11/01 02:00:36;;;;;;;14.90;10.40;;;10.30;79.70;;;;;;5072841;28;20036;-15
2022/11/01 02:03:03;;;;;;;19.35;11.93;;;10.30;79.50;;;;;;5072423;28;20036;-17
2022/11/01 02:05:47;;;;;;;23.77;14.60;;;10.20;79.60;;;;;;5072653;28;20107;-18
2022/11/01 02:08:14;;;;;;;;;;;10.20;79.70;;;;;;5073169;28;20037;-14
2022/11/01 02:10:41;;;;;;;18.45;11.82;;;10.20;80.10;;;;;;5076269;28;19911;-14
2022/11/01 02:13:12;;;;;;;14.85;10.23;;;10.20;80.00;;;;;;5075976;28;20029;-16
2022/11/01 02:15:52;;;;;;;18.63;12.48;;;10.20;79.80;;;;;;5076240;28;20032;-15
2022/11/01 02:18:31;;;;;;;36.67;17.23;;;10.20;79.70;;;;;;5076549;28;20025;-14
2022/11/01 02:21:24;;;;;;;23.23;14.18;;;10.10;80.20;;;;;;5076066;28;20147;-17
2022/11/01 02:24:09;;;;;;;16.95;10.70;;;10.10;80.10;;;;;;5076084;28;20074;-15
2022/11/01 02:26:56;;;;;;;18.45;11.30;;;10.10;80.00;;;;;;5076305;28;20392;-15
2022/11/01 02:29:59;;;;;;;21.90;13.13;;;10.10;79.90;;;;;;5074813;28;20033;-15
2022/11/01 02:32:40;;;;;;;26.00;14.47;;;10.10;80.10;;;;;;5075849;28;20591;-15
2022/11/01 02:35:21;;;;;;;22.38;13.18;;;10.00;80.30;;;;;;5076057;28;20038;-15
2022/11/01 02:37:56;;;;;;;23.65;12.93;;;9.90;79.90;;;;;;5076078;28;20029;-15
2022/11/01 02:40:34;;;;;;;17.95;11.45;;;9.90;80.10;;;;;;5075803;28;20119;-16
2022/11/01 02:43:06;;;;;;;20.85;12.65;;;9.90;80.10;;;;;;5076346;28;20031;-15
2022/11/01 02:45:39;;;;;;;20.83;12.80;;;9.90;80.10;;;;;;5076023;28;20028;-16
2022/11/01 02:48:05;;;;;;;22.48;12.65;;;9.90;80.20;;;;;;5075953;28;20056;-15
2022/11/01 02:50:38;;;;;;;24.88;14.15;;;9.90;80.10;;;;;;5075583;28;20032;-15
2022/11/01 02:53:04;;;;;;;19.67;11.80;;;9.80;80.10;;;;;;5075317;28;20033;-18
2022/11/01 02:55:32;;;;;;;21.90;12.05;;;9.90;80.40;;;;;;5075480;28;20515;-17
2022/11/01 02:58:05;;;;;;;23.35;13.98;;;9.80;80.40;;;;;;5075469;28;20017;-16
2022/11/01 03:00:36;;;;;;;25.48;16.20;;;9.80;80.40;;;;;;5075619;28;20025;-13
2022/11/01 03:03:28;;;;;;;19.65;11.57;;;9.80;80.70;;;;;;5075457;28;20020;-17
2022/11/01 03:06:09;;;;;;;27.40;16.50;;;9.80;80.50;;;;;;5075767;28;20039;-16
2022/11/01 03:08:58;;;;;;;30.52;16.30;;;9.70;80.50;;;;;;5075477;28;20111;-16
2022/11/01 03:11:51;;;;;;;22.73;11.77;;;9.70;80.60;;;;;;5075132;28;20111;-15
2022/11/01 03:14:37;;;;;;;21.50;12.95;;;9.70;80.50;;;;;;5075202;28;20154;-16
2022/11/01 03:17:27;;;;;;;29.73;16.85;;;9.70;80.50;;;;;;5074575;28;20027;-15
2022/11/01 03:20:00;;;;;;;23.75;15.13;;;9.60;80.60;;;;;;5074786;28;20032;-17
2022/11/01 03:22:31;;;;;;;18.90;11.43;;;9.70;80.50;;;;;;5075287;28;20472;-17
2022/11/01 03:25:38;;;;;;;17.25;10.52;;;9.60;80.60;;;;;;5074751;28;20039;-15
2022/11/01 03:28:26;;;;;;;19.02;12.15;;;9.60;80.70;;;;;;5075192;28;20040;-16
2022/11/01 03:31:07;;;;;;;21.02;11.90;;;9.60;80.80;;;;;;5074378;28;20044;-17
2022/11/01 03:33:38;;;;;;;28.17;16.52;;;9.60;80.80;;;;;;5074804;28;20033;-18
2022/11/01 03:36:12;;;;;;;22.60;13.63;;;9.60;80.90;;;;;;5075082;28;20379;-17
2022/11/01 03:38:42;;;;;;;22.20;12.60;;;9.60;80.80;;;;;;5074655;28;20469;-16
2022/11/01 03:41:12;;;;;;;17.70;11.43;;;9.60;81.00;;;;;;5075221;28;20028;-16
2022/11/01 03:43:46;;;;;;;22.30;11.68;;;9.60;80.80;;;;;;5074785;28;20027;-17
2022/11/01 03:46:12;;;;;;;;;;;9.60;80.70;;;;;;5075229;28;20048;-16
2022/11/01 03:48:40;;;;;;;24.98;14.13;;;9.60;81.30;;;;;;5074344;28;19919;-17
2022/11/01 03:51:06;;;;;;;24.02;13.27;;;9.50;81.10;;;;;;5074878;28;20028;-18
2022/11/01 03:53:32;;;;;;;14.85;10.13;;;9.50;81.20;;;;;;5074229;28;20056;-16
2022/11/01 03:55:59;;;;;;;15.15;10.23;;;9.50;80.90;;;;;;5074664;28;20036;-17
2022/11/01 03:58:40;;;;;;;18.00;11.73;;;9.50;80.80;;;;;;5074560;28;20024;-16
2022/11/01 04:01:12;;;;;;;21.90;13.07;;;9.40;80.90;;;;;;5074414;28;20111;-16
2022/11/01 04:03:38;;;;;;;31.45;17.45;;;9.40;81.10;;;;;;5074157;28;20519;-16
2022/11/01 04:06:04;;;;;;;18.42;10.90;;;9.40;81.10;;;;;;5074127;28;20032;-16
2022/11/01 04:08:31;;;;;;;27.35;15.38;;;9.40;80.90;;;;;;5073838;28;20506;-17
2022/11/01 04:10:57;;;;;;;16.23;10.07;;;9.40;81.00;;;;;;5074103;28;20035;-16
2022/11/01 04:13:23;;;;;;;19.80;11.02;;;9.40;81.10;;;;;;5073929;28;20388;-16
2022/11/01 04:21:20;;;;;;;20.42;11.82;;;9.40;80.90;;;;;;5073995;28;20038;-19
2022/11/01 04:23:47;;;;;;;20.58;11.73;;;9.40;81.00;;;;;;5073725;28;20559;-16
2022/11/01 04:26:16;;;;;;;27.30;15.73;;;9.40;81.00;;;;;;5073723;28;20107;-15
2022/11/01 04:28:43;;;;;;;21.23;13.38;;;9.40;80.90;;;;;;5073692;28;20082;-16
2022/11/01 04:31:10;;;;;;;21.70;11.52;;;9.40;80.90;;;;;;5072870;28;20060;-16
2022/11/01 04:33:36;;;;;;;20.52;11.70;;;9.40;81.10;;;;;;5073821;28;20028;-17
2022/11/01 04:36:05;;;;;;;17.30;10.20;;;9.40;80.90;;;;;;5073536;28;20024;-17
2022/11/01 04:38:31;;;;;;;18.02;11.05;;;9.40;80.70;;;;;;5073741;28;20028;-17
2022/11/01 04:40:57;;;;;;;19.23;11.23;;;9.50;80.70;;;;;;5073348;28;20515;-17
2022/11/01 04:43:23;;;;;;;20.27;11.45;;;9.50;80.80;;;;;;5073757;28;20029;-17
2022/11/01 04:45:54;;;;;;;19.33;11.48;;;9.50;80.80;;;;;;5073655;28;20025;-18
2022/11/01 04:48:19;;;;;;;18.83;11.57;;;9.50;80.80;;;;;;5072104;28;20033;-15
2022/11/01 04:50:46;;;;;;;17.88;11.07;;;9.50;80.70;;;;;;5073617;28;20052;-17
2022/11/01 04:53:12;;;;;;;16.95;10.15;;;9.40;80.70;;;;;;5073044;28;20067;-16
2022/11/01 04:55:39;;;;;;;19.00;11.02;;;9.40;80.60;;;;;;5073300;28;20571;-16
2022/11/01 04:58:05;;;;;;;21.23;11.77;;;9.40;80.70;;;;;;5073595;28;20021;-17
2022/11/01 05:00:33;;;;;;;20.42;12.85;;;9.30;80.80;;;;;;5073564;28;20016;-17
2022/11/01 05:03:09;;;;;;;16.45;9.98;;;9.20;80.90;;;;;;5073315;28;20025;-18
2022/11/01 05:05:35;;;;;;;15.57;9.13;;;9.20;80.90;;;;;;5073802;28;20074;-16
2022/11/01 05:08:10;;;;;;;14.93;9.65;;;9.10;80.90;;;;;;5073291;28;20033;-16
2022/11/01 05:10:42;;;;;;;15.40;9.13;;;9.20;81.00;;;;;;5073492;28;20029;-17
2022/11/01 05:13:12;;;;;;;12.90;8.35;;;9.10;81.00;;;;;;5072973;28;20036;-16
2022/11/01 05:15:39;;;;;;;14.32;8.68;;;9.10;80.90;;;;;;5072240;28;20036;-18
2022/11/01 05:18:05;;;;;;;20.45;12.57;;;9.10;81.00;;;;;;5073541;28;20031;-17
2022/11/01 05:20:31;;;;;;;14.98;9.68;;;9.10;81.10;;;;;;5073160;28;20021;-17
2022/11/01 05:22:58;;;;;;;19.08;10.60;;;9.00;81.10;;;;;;5072697;28;20020;-18
2022/11/01 05:25:24;;;;;;;21.33;11.75;;;9.10;81.20;;;;;;5073272;28;20032;-16
2022/11/01 05:27:50;;;;;;;21.23;12.85;;;9.10;81.40;;;;;;5072827;28;20102;-17
2022/11/01 05:30:16;;;;;;;21.40;13.10;;;9.00;81.10;;;;;;5073009;28;20056;-16
2022/11/01 05:32:42;;;;;;;17.83;11.98;;;9.00;81.10;;;;;;5073103;28;20017;-16
2022/11/01 05:35:08;;;;;;;26.90;16.52;;;8.90;81.20;;;;;;5072999;28;20029;-18
2022/11/01 05:37:35;;;;;;;21.08;12.07;;;8.90;81.40;;;;;;5072754;28;20025;-17
2022/11/01 05:40:02;;;;;;;19.77;12.35;;;8.90;81.20;;;;;;5072850;28;20044;-16
2022/11/01 05:42:28;;;;;;;25.10;13.88;;;8.90;81.30;;;;;;5073106;28;20035;-16
2022/11/01 05:44:54;;;;;;;21.67;12.95;;;8.90;81.30;;;;;;5076682;28;20111;-18
2022/11/01 05:47:20;;;;;;;27.23;15.95;;;8.90;81.30;;;;;;5076750;28;20384;-17
2022/11/01 05:49:46;;;;;;;18.58;11.95;;;8.90;81.40;;;;;;5077080;28;20103;-16
2022/11/01 05:52:12;;;;;;;16.90;10.75;;;8.90;81.80;;;;;;5076676;28;20426;-16
2022/11/01 05:54:38;;;;;;;19.23;10.70;;;8.90;81.60;;;;;;5076991;28;20032;-17
2022/11/01 05:57:05;;;;;;;22.80;14.48;;;8.90;81.50;;;;;;5076716;28;20028;-18
2022/11/01 05:59:30;;;;;;;21.38;11.55;;;8.90;81.50;;;;;;5076862;28;20033;-17
2022/11/01 06:01:56;;;;;;;17.05;10.70;;;8.90;81.80;;;;;;5076855;28;20383;-17
2022/11/01 06:04:22;;;;;;;17.83;10.50;;;8.90;81.70;;;;;;5076467;28;20097;-17
2022/11/01 06:06:48;;;;;;;21.27;12.00;;;9.00;81.20;;;;;;5076182;28;20035;-16
2022/11/01 06:09:14;;;;;;;17.38;10.50;;;9.10;81.40;;;;;;5076571;28;20035;-18
2022/11/01 06:11:40;;;;;;;23.20;12.85;;;9.10;81.40;;;;;;5076476;28;20415;-18
2022/11/01 06:14:09;;;;;;;24.92;13.25;;;9.10;81.60;;;;;;5076375;28;20032;-15
2022/11/01 06:16:35;;;;;;;24.75;13.52;;;9.20;81.60;;;;;;5076162;28;20381;-17
2022/11/01 06:19:01;;;;;;;33.30;17.08;;;9.20;81.50;;;;;;5076323;28;20020;-15
2022/11/01 06:21:27;;;;;;;16.55;9.63;;;9.20;81.70;;;;;;5076175;28;20032;-17
2022/11/01 06:23:53;;;;;;;18.25;11.00;;;9.20;81.60;;;;;;5076115;28;20021;-17
2022/11/01 06:26:19;;;;;;;19.77;10.98;;;9.30;81.70;;;;;;5076315;28;20435;-17
2022/11/01 06:28:45;;;;;;;16.90;9.77;;;9.40;81.80;;;;;;5075907;28;20039;-18
2022/11/01 06:31:12;;;;;;;22.13;12.65;;;9.40;81.80;;;;;;5075664;28;20075;-18
2022/11/01 06:33:39;;;;;;;18.52;10.43;;;9.50;81.80;;;;;;5075917;28;20123;-17
2022/11/01 06:36:05;;;;;;;22.98;11.32;;;9.50;81.90;;;;;;5076166;28;20028;-18
2022/11/01 06:38:31;;;;;;;16.73;10.63;;;9.60;81.80;;;;;;5075783;28;20074;-16
2022/11/01 06:40:57;;;;;;;19.52;11.50;;;9.70;81.80;;;;;;5075783;28;20090;-16
2022/11/01 06:43:23;;;;;;;19.17;11.15;;;9.90;81.70;;;;;;5075650;28;20021;-17
2022/11/01 06:45:49;;;;;;;20.27;10.48;;;9.90;81.50;;;;;;5076000;28;20074;-18
2022/11/01 06:48:15;;;;;;;29.85;15.10;;;10.00;81.60;;;;;;5075900;28;20353;-15
2022/11/01 06:50:41;;;;;;;19.42;10.65;;;10.20;81.70;;;;;;5076741;28;20061;-17
2022/11/01 06:53:08;;;;;;;26.33;14.55;;;10.30;81.60;;;;;;5075265;28;20594;-18
2022/11/01 06:55:34;;;;;;;26.42;15.02;;;10.50;81.30;;;;;;5073588;28;20123;-17
2022/11/01 06:58:02;;;;;;;22.42;13.63;;;10.60;81.10;;;;;;5075468;28;20028;-17
2022/11/01 07:00:29;;;;;;;28.13;14.55;;;10.80;81.00;;;;;;5075428;28;20158;-16
2022/11/01 07:03:06;;;;;;;25.25;14.15;;;10.90;80.90;;;;;;5075758;28;20025;-17
2022/11/01 07:05:34;;;;;;;23.83;13.45;;;11.10;80.60;;;;;;5074176;28;20069;-15
2022/11/01 07:08:01;;;;;;;21.05;12.40;;;11.20;80.60;;;;;;5075166;28;20028;-17
2022/11/01 07:10:28;;;;;;;26.67;14.95;;;11.40;80.40;;;;;;5075584;28;20029;-17
2022/11/01 07:13:02;;;;;;;27.50;15.32;;;11.60;80.60;;;;;;5075269;28;20035;-17
2022/11/01 07:15:29;;;;;;;22.08;11.90;;;11.80;80.20;;;;;;5075623;28;20024;-16
2022/11/01 07:18:03;;;;;;;18.17;11.25;;;11.90;80.40;;;;;;5075093;28;20146;-15
2022/11/01 07:20:34;;;;;;;22.05;11.93;;;12.20;80.10;;;;;;5075119;28;20028;-15
2022/11/01 07:23:04;;;;;;;20.50;11.52;;;12.40;79.90;;;;;;5074731;28;20021;-17
2022/11/01 07:25:31;;;;;;;24.02;14.40;;;12.60;79.50;;;;;;5075018;28;20020;-17
2022/11/01 07:27:58;;;;;;;20.52;11.38;;;12.70;79.40;;;;;;5074824;28;20120;-17
2022/11/01 07:30:25;;;;;;;21.95;12.00;;;12.90;79.10;;;;;;5074656;28;20045;-17
2022/11/01 07:32:58;;;;;;;18.08;10.77;;;13.00;79.10;;;;;;5074762;28;20025;-18
2022/11/01 07:35:25;;;;;;;;;;;13.20;78.70;;;;;;5075484;28;20023;-17
2022/11/01 07:37:51;;;;;;;15.68;9.02;;;13.40;79.00;;;;;;5074647;28;19949;-16
2022/11/01 07:40:18;;;;;;;16.35;9.32;;;13.50;78.10;;;;;;5074899;28;20024;-17
2022/11/01 07:42:44;;;;;;;16.35;10.00;;;13.70;78.10;;;;;;5074607;28;20400;-15
2022/11/01 07:45:16;;;;;;;18.25;10.20;;;13.90;77.80;;;;;;5074334;28;20021;-16
2022/11/01 07:47:42;;;;;;;16.40;9.43;;;14.10;77.40;;;;;;5074643;28;20036;-16
2022/11/01 07:50:08;;;;;;;17.77;10.15;;;14.30;77.30;;;;;;5075025;28;20123;-15
2022/11/01 07:52:34;;;;;;;15.27;8.80;;;14.50;76.90;;;;;;5074762;28;20033;-15
2022/11/01 07:55:00;;;;;;;13.73;9.38;;;14.70;76.50;;;;;;5072966;28;20491;-13
2022/11/01 07:57:26;;;;;;;15.57;7.95;;;14.90;76.40;;;;;;5074596;28;20077;-15
2022/11/01 07:59:52;;;;;;;13.82;8.00;;;15.00;76.00;;;;;;5074743;28;20051;-15
2022/11/01 08:02:17;;;;;;;12.98;7.50;;;15.20;75.60;;;;;;5074224;28;20036;-15
2022/11/01 08:04:43;;;;;;;16.10;8.85;;;15.40;75.00;;;;;;5073349;28;20101;-15
2022/11/01 08:07:09;;;;;;;13.23;7.75;;;15.50;74.60;;;;;;5072699;28;20116;-13
2022/11/01 08:09:35;;;;;;;20.38;9.93;;;15.50;74.30;;;;;;5074092;28;20025;-14
2022/11/01 08:12:00;;;;;;;18.77;10.45;;;15.60;74.00;;;;;;5074006;28;20031;-14
2022/11/01 08:14:26;;;;;;;13.93;8.18;;;15.70;73.90;;;;;;5074143;28;20020;-15
2022/11/01 08:16:54;;;;;;;16.50;8.65;;;15.70;74.00;;;;;;5074042;28;20020;-16
2022/11/01 08:19:23;;;;;;;16.70;9.13;;;15.90;73.80;;;;;;5074706;28;20033;-17
2022/11/01 08:21:49;;;;;;;18.65;8.07;;;16.10;73.60;;;;;;5074363;28;20091;-14
2022/11/01 08:24:16;;;;;;;13.40;7.65;;;16.30;73.50;;;;;;5072907;28;20020;-16
2022/11/01 08:26:42;;;;;;;13.23;7.13;;;16.50;72.80;;;;;;5073764;28;20480;-16
2022/11/01 08:29:08;;;;;;;12.68;7.15;;;16.70;72.00;;;;;;5073419;28;20600;-16
2022/11/01 08:31:40;;;;;;;12.80;7.15;;;16.90;71.30;;;;;;5073477;28;20048;-17
2022/11/01 08:34:06;;;;;;;13.82;7.60;;;17.10;70.90;;;;;;5074023;28;20028;-15
2022/11/01 08:36:33;;;;;;;15.02;8.63;;;17.30;70.40;;;;;;5073637;28;20029;-17
2022/11/01 08:38:59;;;;;;;16.42;9.43;;;17.50;70.10;;;;;;5073234;28;20111;-17
2022/11/01 08:41:27;;;;;;;22.20;10.23;;;17.70;70.10;;;;;;5073491;28;20028;-15
2022/11/01 08:43:53;;;;;;;14.77;7.57;;;17.90;69.70;;;;;;5073822;28;20024;-17
2022/11/01 08:46:20;;;;;;;16.48;8.55;;;18.00;69.00;;;;;;5073767;28;20025;-17
2022/11/01 08:48:54;;;;;;;14.30;8.32;;;18.10;68.70;;;;;;5073541;28;20028;-15
2022/11/01 08:51:24;;;;;;;19.13;10.05;;;18.40;68.60;;;;;;5073725;28;20024;-15
2022/11/01 08:53:59;;;;;;;13.30;8.07;;;18.50;67.60;;;;;;5073846;28;20027;-15
2022/11/01 08:56:26;;;;;;;17.80;9.38;;;18.60;68.10;;;;;;5073527;28;20017;-15
2022/11/01 08:58:53;;;;;;;17.33;9.38;;;18.80;67.90;;;;;;5073368;28;20029;-15
2022/11/01 09:01:20;;;;;;;19.55;11.00;;;18.90;67.20;;;;;;5073729;28;20020;-15
2022/11/01 09:03:46;;;;;;;15.50;8.50;;;19.00;66.60;;;;;;5072010;28;20402;-14
2022/11/01 09:06:13;;;;;;;19.83;11.07;;;19.10;67.30;;;;;;5073236;28;20024;-17
2022/11/01 09:08:38;;;;;;;18.92;10.32;;;19.10;66.00;;;;;;5072983;28;20427;-15
2022/11/01 09:11:05;;;;;;;19.70;9.70;;;19.00;67.00;;;;;;5073052;28;20027;-15
2022/11/01 09:13:32;;;;;;;15.50;8.88;;;19.00;66.90;;;;;;5073451;28;20020;-15
2022/11/01 09:15:59;;;;;;;19.45;9.50;;;18.80;66.90;;;;;;5073376;28;20028;-15
2022/11/01 09:18:25;;;;;;;15.23;8.43;;;18.70;67.60;;;;;;5072719;28;20070;-15
2022/11/01 09:20:55;;;;;;;15.13;8.80;;;18.60;68.20;;;;;;5073055;28;20024;-14
2022/11/01 09:23:21;;;;;;;22.45;11.45;;;18.50;68.60;;;;;;5073103;28;20077;-16
2022/11/01 09:25:47;;;;;;;23.75;10.95;;;18.60;68.60;;;;;;5073213;28;20107;-16
2022/11/01 09:28:13;;;;;;;22.98;10.65;;;18.70;68.60;;;;;;5073130;28;20500;-15
2022/11/01 09:30:40;;;;;;;14.05;8.85;;;18.90;68.60;;;;;;5072975;28;20504;-15
2022/11/01 09:33:06;;;;;;;20.83;11.43;;;19.20;68.50;;;;;;5072831;28;20024;-15
2022/11/01 09:35:33;;;;;;;19.88;10.10;;;19.40;66.70;;;;;;5073340;28;20441;-17
2022/11/01 09:38:01;;;;;;;20.98;11.13;;;19.70;67.00;;;;;;5073119;28;20029;-14
2022/11/01 09:40:31;;;;;;;19.75;11.05;;;19.90;66.40;;;;;;5073491;28;20025;-15
2022/11/01 09:42:59;;;;;;;17.60;8.27;;;20.00;65.40;;;;;;5072909;28;20484;-14
2022/11/01 09:45:28;;;;;;;22.08;10.70;;;20.20;65.60;;;;;;5073095;28;20021;-15
2022/11/01 09:47:57;;;;;;;18.40;9.68;;;20.30;65.60;;;;;;5073093;28;20048;-15
2022/11/01 09:50:36;;;;;;;20.23;10.10;;;20.50;65.70;;;;;;5073017;28;20056;-14
2022/11/01 09:53:25;;;;;;;19.42;10.43;;;20.70;64.70;;;;;;5072511;28;20021;-15
2022/11/01 09:56:08;;;;;;;15.00;8.57;;;20.80;62.60;;;;;;5071946;28;20039;-15
2022/11/01 09:59:05;;;;;;;18.15;10.13;;;20.90;63.70;;;;;;5073064;28;20055;-15
2022/11/01 10:01:50;;;;;;;14.65;8.45;;;20.90;62.80;;;;;;5073014;28;20113;-14
2022/11/01 10:04:57;;;;;;;18.55;10.68;;;21.20;61.80;;;;;;5073010;28;20013;-17
2022/11/01 10:07:41;;;;;;;20.60;10.95;;;21.40;62.30;;;;;;5050899;28;20033;-15
2022/11/01 10:10:42;;;;;;;16.17;9.02;;;21.60;60.60;;;;;;5050403;28;20059;-14
2022/11/01 10:13:41;;;;;;;20.63;10.05;;;21.80;61.70;;;;;;4971587;28;20129;-15
2022/11/01 10:16:50;;;;;;;18.38;9.63;;;21.90;60.80;;;;;;4952924;28;20050;-14
2022/11/01 10:19:20;;;;;;;19.77;10.73;;;22.30;61.30;;;;;;4914644;29;20119;-16
2022/11/01 10:21:49;;;;;;;17.80;10.63;;;22.50;61.10;;;;;;4914609;29;20040;-15
2022/11/01 10:24:40;;;;;;;19.08;9.77;;;22.60;60.10;;;;;;4914242;29;20043;-15
2022/11/01 10:27:29;;;;;;;19.20;11.13;;;22.80;60.10;;;;;;4914268;29;20043;-14
2022/11/01 10:30:06;;;;;;;20.80;10.95;;;23.00;58.90;;;;;;4914944;29;20595;-14
2022/11/01 10:32:40;;;;;;;16.00;9.32;;;23.20;58.50;;;;;;4917710;29;20032;-16
2022/11/01 10:35:21;;;;;;;23.02;12.48;;;23.40;58.70;;;;;;4917686;29;20043;-14
2022/11/01 10:38:17;;;;;;;19.92;11.10;;;23.60;58.10;;;;;;4917606;29;20080;-15
2022/11/01 10:41:12;;;;;;;23.30;12.82;;;23.80;58.10;;;;;;4917683;29;20043;-14
2022/11/01 10:43:45;;;;;;;25.08;11.90;;;23.90;57.60;;;;;;4927459;29;20038;-14
2022/11/01 10:46:19;;;;;;;23.50;12.23;;;23.80;58.30;;;;;;4943371;28;20091;-14
2022/11/01 10:48:51;;;;;;;;;;;23.80;58.50;;;;;;4994622;28;20035;-14
2022/11/01 10:51:20;;;;;;;21.98;12.32;;;23.70;57.20;;;;;;4994376;28;19956;-14
2022/11/01 10:53:52;;;;;;;20.35;11.80;;;23.70;58.30;;;;;;5057523;28;20507;-15
2022/11/01 10:56:23;;;;;;;20.48;12.20;;;23.60;58.10;;;;;;5075526;28;20066;-14
2022/11/01 10:58:59;;;;;;;23.00;13.77;;;23.50;58.70;;;;;;5075625;28;20054;-14
2022/11/01 11:01:29;;;;;;;21.38;12.95;;;23.50;58.80;;;;;;5076114;28;20032;-14
2022/11/01 11:04:00;;;;;;;22.58;13.27;;;23.40;58.70;;;;;;5075436;28;20017;-14
2022/11/01 11:06:27;;;;;;;28.40;15.55;;;23.40;59.20;;;;;;5075551;28;20025;-14
2022/11/01 11:08:55;;;;;;;27.33;15.90;;;23.30;58.90;;;;;;5075313;28;20029;-15
2022/11/01 11:11:39;;;;;;;28.00;16.83;;;23.30;58.80;;;;;;5075065;28;20033;-15
2022/11/01 11:14:08;;;;;;;27.63;16.48;;;23.30;58.50;;;;;;5076144;28;20024;-14
2022/11/01 11:16:54;;;;;;;28.30;16.83;;;23.20;58.30;;;;;;5075463;28;20032;-15
2022/11/01 11:19:32;;;;;;;32.53;18.23;;;23.20;58.80;;;;;;5075124;28;20021;-15
2022/11/01 11:22:00;;;;;;;30.25;17.65;;;23.20;59.20;;;;;;5075153;28;20028;-15
2022/11/01 11:24:36;;;;;;;26.48;15.95;;;23.10;59.20;;;;;;5074991;28;20100;-14
2022/11/01 11:27:10;;;;;;;28.33;16.00;;;23.00;59.40;;;;;;5075155;28;20053;-15
2022/11/01 11:29:47;;;;;;;25.35;15.93;;;22.90;59.60;;;;;;5075209;28;20024;-13
2022/11/01 11:32:26;;;;;;;25.88;15.80;;;22.90;59.80;;;;;;5075262;28;20094;-14
2022/11/01 11:34:57;;;;;;;35.00;18.30;;;22.80;59.70;;;;;;5075287;28;20016;-14
2022/11/01 11:37:28;;;;;;;29.38;17.58;;;22.80;60.20;;;;;;5074986;28;20025;-16
2022/11/01 11:40:15;;;;;;;27.85;17.40;;;22.80;60.50;;;;;;5074797;28;20480;-14
2022/11/01 11:42:43;;;;;;;31.98;18.45;;;22.70;60.60;;;;;;5074865;28;20040;-14
2022/11/01 11:45:30;;;;;;;36.15;19.70;;;22.70;60.70;;;;;;5074519;28;20035;-15
2022/11/01 11:48:13;;;;;;;32.50;19.17;;;22.70;60.60;;;;;;5074542;28;20028;-16
2022/11/01 11:50:40;;;;;;;39.13;21.60;;;22.60;61.00;;;;;;5074638;28;20476;-15
2022/11/01 11:53:21;;;;;;;40.35;23.98;;;22.60;61.00;;;;;;5074279;28;20111;-14
2022/11/01 11:55:54;;;;;;;38.22;21.85;;;22.60;60.90;;;;;;5074746;28;20028;-14
2022/11/01 11:58:34;;;;;;;34.20;19.90;;;22.60;61.10;;;;;;5074921;28;20077;-17
2022/11/01 12:01:19;;;;;;;39.13;23.52;;;22.60;61.00;;;;;;5074197;28;20032;-15
2022/11/01 12:03:49;;;;;;;35.42;22.50;;;22.60;61.00;;;;;;5074511;28;20099;-16
2022/11/01 12:06:25;;;;;;;40.30;23.05;;;22.60;60.60;;;;;;5074412;28;20048;-17
2022/11/01 12:08:53;;;;;;;38.10;22.77;;;22.70;60.50;;;;;;5074060;28;20029;-15
2022/11/01 12:11:22;;;;;;;38.97;24.80;;;22.80;60.20;;;;;;5072762;28;20480;-15
2022/11/01 12:14:02;;;;;;;35.63;21.25;;;22.80;60.00;;;;;;5074469;28;20035;-14
2022/11/01 12:16:28;;;;;;;34.08;19.65;;;22.90;60.00;;;;;;5073965;28;20032;-14
2022/11/01 12:18:59;;;;;;;37.33;21.90;;;22.90;60.10;;;;;;5073853;28;20013;-14
2022/11/01 12:21:25;;;;;;;36.92;22.52;;;23.00;60.30;;;;;;5074411;28;20020;-17
2022/11/01 12:24:02;;;;;;;43.58;25.10;;;23.10;60.20;;;;;;5074108;28;20078;-16
2022/11/01 12:26:33;;;;;;;41.30;22.83;;;23.20;60.10;;;;;;5074030;28;20482;-16
2022/11/01 12:29:22;;;;;;;39.40;23.20;;;23.20;59.70;;;;;;5073826;28;20037;-16
2022/11/01 12:31:50;;;;;;;37.22;21.98;;;23.20;59.90;;;;;;5073672;28;20044;-14
2022/11/01 12:34:25;;;;;;;37.47;22.40;;;23.30;59.90;;;;;;5073614;28;20020;-16
2022/11/01 12:37:09;;;;;;;34.22;19.23;;;23.40;59.90;;;;;;5073440;28;20552;-13
2022/11/01 12:39:57;;;;;;;39.35;25.48;;;23.40;60.00;;;;;;5074039;28;20111;-14
2022/11/01 12:42:46;;;;;;;39.55;23.73;;;23.50;59.80;;;;;;5073766;28;20032;-14
2022/11/01 12:45:28;;;;;;;35.25;20.45;;;23.50;59.50;;;;;;5073864;28;20052;-15
2022/11/01 12:48:06;;;;;;;36.42;23.40;;;23.60;59.30;;;;;;5073698;28;20024;-15
2022/11/01 12:50:44;;;;;;;38.40;24.08;;;23.70;59.10;;;;;;5073778;28;20024;-13
2022/11/01 12:53:15;;;;;;;40.92;24.15;;;23.60;59.10;;;;;;5072843;28;20024;-14
2022/11/01 12:55:42;;;;;;;42.05;24.90;;;23.60;58.90;;;;;;5073374;28;20454;-14
2022/11/01 12:58:12;;;;;;;36.22;22.23;;;23.50;59.20;;;;;;5072104;28;20021;-14
2022/11/01 13:00:59;;;;;;;34.78;20.55;;;23.40;59.60;;;;;;5074192;28;20024;-14